sensor_id;sensor_type;location;lat;lon;timestamp;temperature;humidity
3925;DHT22;1977;52.274;10.518;2023-06-24T00:00:49;18.50;99.90
3925;DHT22;1977;52.274;10.518;2023-06-24T00:03:17;18.50;99.90
3925;DHT22;1977;52.274;10.518;2023-06-24T00:05:44;18.50;99.90
3925;DHT22;1977;52.274;10.518;2023-06-24T00:08:15;18.80;99.90
3925;DHT22;1977;52.274;10.518;2023-06-24T00:10:44;18.40;99.90
3925;DHT22;1977;52.274;10.518;2023-06-24T00:13:11;18.80;99.90
3925;DHT22;1977;52.274;10.518;2023-06-24T00:15:39;18.80;99.90
3925;DHT22;1977;52.274;10.518;2023-06-24T00:18:08;18.40;99.90
3925;DHT22;1977;52.274;10.518;2023-06-24T00:20:35;18.30;99.90
3925;DHT22;1977;52.274;10.518;2023-06-24T00:23:01;18.30;99.90
3925;DHT22;1977;52.274;10.518;2023-06-24T00:25:28;18.30;99.90
3925;DHT22;1977;52.274;10.518;2023-06-24T00:27:55;18.30;99.90
3925;DHT22;1977;52.274;10.518;2023-06-24T00:30:22;18.20;99.90
3925;DHT22;1977;52.274;10.518;2023-06-24T00:32:50;18.20;99.90
3925;DHT22;1977;52.274;10.518;2023-06-24T00:35:17;18.20;99.90
3925;DHT22;1977;52.274;10.518;2023-06-24T00:37:44;18.10;99.90
3925;DHT22;1977;52.274;10.518;2023-06-24T00:40:12;18.10;99.90
3925;DHT22;1977;52.274;10.518;2023-06-24T00:42:41;18.00;99.90
3925;DHT22;1977;52.274;10.518;2023-06-24T00:45:09;17.90;99.90
3925;DHT22;1977;52.274;10.518;2023-06-24T00:47:36;17.90;99.90
3925;DHT22;1977;52.274;10.518;2023-06-24T00:50:05;17.80;99.90
3925;DHT22;1977;52.274;10.518;2023-06-24T00:52:32;17.80;99.90
3925;DHT22;1977;52.274;10.518;2023-06-24T00:54:59;17.80;99.90
3925;DHT22;1977;52.274;10.518;2023-06-24T00:57:28;17.80;99.90
3925;DHT22;1977;52.274;10.518;2023-06-24T00:59:55;17.80;99.90
3925;DHT22;1977;52.274;10.518;2023-06-24T01:02:22;17.70;99.90
3925;DHT22;1977;52.274;10.518;2023-06-24T01:04:53;17.70;99.90
3925;DHT22;1977;52.274;10.518;2023-06-24T01:07:21;17.70;99.90
3925;DHT22;1977;52.274;10.518;2023-06-24T01:09:48;17.80;99.90
3925;DHT22;1977;52.274;10.518;2023-06-24T01:12:15;17.80;99.90
3925;DHT22;1977;52.274;10.518;2023-06-24T01:14:42;17.70;99.90
3925;DHT22;1977;52.274;10.518;2023-06-24T01:17:14;17.60;99.90
3925;DHT22;1977;52.274;10.518;2023-06-24T01:19:54;17.70;99.90
3925;DHT22;1977;52.274;10.518;2023-06-24T01:22:44;17.60;99.90
3925;DHT22;1977;52.274;10.518;2023-06-24T01:25:25;17.60;99.90
3925;DHT22;1977;52.274;10.518;2023-06-24T01:28:20;17.90;99.90
3925;DHT22;1977;52.274;10.518;2023-06-24T01:31:18;17.50;99.90
3925;DHT22;1977;52.274;10.518;2023-06-24T01:33:49;17.50;99.90
3925;DHT22;1977;52.274;10.518;2023-06-24T01:36:18;17.50;99.90
3925;DHT22;1977;52.274;10.518;2023-06-24T01:38:51;17.50;99.90
3925;DHT22;1977;52.274;10.518;2023-06-24T01:41:22;17.40;99.90
3925;DHT22;1977;52.274;10.518;2023-06-24T01:43:52;17.40;99.90
3925;DHT22;1977;52.274;10.518;2023-06-24T01:46:22;17.40;99.90
3925;DHT22;1977;52.274;10.518;2023-06-24T01:48:54;17.60;99.90
3925;DHT22;1977;52.274;10.518;2023-06-24T01:51:22;17.40;99.90
3925;DHT22;1977;52.274;10.518;2023-06-24T01:53:53;17.40;99.90
3925;DHT22;1977;52.274;10.518;2023-06-24T01:56:22;17.30;99.90
3925;DHT22;1977;52.274;10.518;2023-06-24T01:58:52;17.30;99.90
3925;DHT22;1977;52.274;10.518;2023-06-24T02:01:21;17.30;99.90
3925;DHT22;1977;52.274;10.518;2023-06-24T02:03:48;17.30;99.90
3925;DHT22;1977;52.274;10.518;2023-06-24T02:06:16;17.30;99.90
3925;DHT22;1977;52.274;10.518;2023-06-24T02:08:47;17.20;99.90
3925;DHT22;1977;52.274;10.518;2023-06-24T02:11:15;17.60;99.90
3925;DHT22;1977;52.274;10.518;2023-06-24T02:13:43;17.20;99.90
3925;DHT22;1977;52.274;10.518;2023-06-24T02:16:10;17.20;99.90
3925;DHT22;1977;52.274;10.518;2023-06-24T02:18:40;17.20;99.90
3925;DHT22;1977;52.274;10.518;2023-06-24T02:21:08;17.50;99.90
3925;DHT22;1977;52.274;10.518;2023-06-24T02:23:36;17.20;99.90
3925;DHT22;1977;52.274;10.518;2023-06-24T02:26:04;17.20;99.90
3925;DHT22;1977;52.274;10.518;2023-06-24T02:28:33;17.20;99.90
3925;DHT22;1977;52.274;10.518;2023-06-24T02:31:00;17.10;99.90
3925;DHT22;1977;52.274;10.518;2023-06-24T02:33:27;17.10;99.90
3925;DHT22;1977;52.274;10.518;2023-06-24T02:35:55;17.20;99.90
3925;DHT22;1977;52.274;10.518;2023-06-24T02:38:22;17.10;99.90
3925;DHT22;1977;52.274;10.518;2023-06-24T02:40:49;17.50;99.90
3925;DHT22;1977;52.274;10.518;2023-06-24T02:43:19;17.10;99.90
3925;DHT22;1977;52.274;10.518;2023-06-24T02:45:47;17.00;99.90
3925;DHT22;1977;52.274;10.518;2023-06-24T02:48:15;17.10;99.90
3925;DHT22;1977;52.274;10.518;2023-06-24T02:50:43;17.10;99.90
3925;DHT22;1977;52.274;10.518;2023-06-24T02:53:12;17.00;99.90
3925;DHT22;1977;52.274;10.518;2023-06-24T02:55:40;17.00;99.90
3925;DHT22;1977;52.274;10.518;2023-06-24T02:58:08;17.00;99.90
3925;DHT22;1977;52.274;10.518;2023-06-24T03:00:35;17.00;99.90
3925;DHT22;1977;52.274;10.518;2023-06-24T03:03:04;17.00;99.90
3925;DHT22;1977;52.274;10.518;2023-06-24T03:05:31;17.00;99.90
3925;DHT22;1977;52.274;10.518;2023-06-24T03:07:59;16.90;99.90
3925;DHT22;1977;52.274;10.518;2023-06-24T03:10:30;16.90;99.90
3925;DHT22;1977;52.274;10.518;2023-06-24T03:12:57;16.80;99.90
3925;DHT22;1977;52.274;10.518;2023-06-24T03:15:24;16.80;99.90
3925;DHT22;1977;52.274;10.518;2023-06-24T03:17:51;16.80;99.90
3925;DHT22;1977;52.274;10.518;2023-06-24T03:20:18;16.80;99.90
3925;DHT22;1977;52.274;10.518;2023-06-24T03:22:45;16.70;99.90
3925;DHT22;1977;52.274;10.518;2023-06-24T03:25:12;16.70;99.90
3925;DHT22;1977;52.274;10.518;2023-06-24T03:27:40;16.20;99.90
3925;DHT22;1977;52.274;10.518;2023-06-24T03:30:07;16.70;99.90
3925;DHT22;1977;52.274;10.518;2023-06-24T03:32:35;16.70;99.90
3925;DHT22;1977;52.274;10.518;2023-06-24T03:35:02;16.70;99.90
3925;DHT22;1977;52.274;10.518;2023-06-24T03:37:29;16.70;99.90
3925;DHT22;1977;52.274;10.518;2023-06-24T03:39:56;16.70;99.90
3925;DHT22;1977;52.274;10.518;2023-06-24T03:42:23;17.00;99.90
3925;DHT22;1977;52.274;10.518;2023-06-24T03:44:51;16.70;99.90
3925;DHT22;1977;52.274;10.518;2023-06-24T03:47:18;16.70;99.90
3925;DHT22;1977;52.274;10.518;2023-06-24T03:49:44;16.70;99.90
3925;DHT22;1977;52.274;10.518;2023-06-24T03:52:11;16.80;99.90
3925;DHT22;1977;52.274;10.518;2023-06-24T03:54:38;16.80;99.90
3925;DHT22;1977;52.274;10.518;2023-06-24T03:57:06;16.80;99.90
3925;DHT22;1977;52.274;10.518;2023-06-24T03:59:33;16.80;99.90
3925;DHT22;1977;52.274;10.518;2023-06-24T04:02:01;16.80;99.90
3925;DHT22;1977;52.274;10.518;2023-06-24T04:04:28;16.80;99.90
3925;DHT22;1977;52.274;10.518;2023-06-24T04:06:55;16.80;99.90
3925;DHT22;1977;52.274;10.518;2023-06-24T04:09:21;16.90;99.90
3925;DHT22;1977;52.274;10.518;2023-06-24T04:11:49;16.90;99.90
3925;DHT22;1977;52.274;10.518;2023-06-24T04:14:15;17.10;99.90
3925;DHT22;1977;52.274;10.518;2023-06-24T04:16:42;16.90;99.90
3925;DHT22;1977;52.274;10.518;2023-06-24T04:19:10;17.00;99.90
3925;DHT22;1977;52.274;10.518;2023-06-24T04:21:37;16.90;99.90
3925;DHT22;1977;52.274;10.518;2023-06-24T04:24:04;17.00;99.90
3925;DHT22;1977;52.274;10.518;2023-06-24T04:26:31;16.90;99.90
3925;DHT22;1977;52.274;10.518;2023-06-24T04:28:58;17.00;99.90
3925;DHT22;1977;52.274;10.518;2023-06-24T04:31:25;17.20;99.90
3925;DHT22;1977;52.274;10.518;2023-06-24T04:33:53;17.00;99.90
3925;DHT22;1977;52.274;10.518;2023-06-24T04:36:21;17.00;99.90
3925;DHT22;1977;52.274;10.518;2023-06-24T04:38:48;17.00;99.90
3925;DHT22;1977;52.274;10.518;2023-06-24T04:41:15;17.00;99.90
3925;DHT22;1977;52.274;10.518;2023-06-24T04:43:43;17.10;99.90
3925;DHT22;1977;52.274;10.518;2023-06-24T04:46:10;17.10;99.90
3925;DHT22;1977;52.274;10.518;2023-06-24T04:48:37;17.10;99.90
3925;DHT22;1977;52.274;10.518;2023-06-24T04:51:04;17.20;99.90
3925;DHT22;1977;52.274;10.518;2023-06-24T04:53:32;17.20;99.90
3925;DHT22;1977;52.274;10.518;2023-06-24T04:55:59;17.30;99.90
3925;DHT22;1977;52.274;10.518;2023-06-24T04:58:26;17.20;99.90
3925;DHT22;1977;52.274;10.518;2023-06-24T05:00:52;17.40;99.90
3925;DHT22;1977;52.274;10.518;2023-06-24T05:03:20;17.40;99.90
3925;DHT22;1977;52.274;10.518;2023-06-24T05:05:47;17.50;99.90
3925;DHT22;1977;52.274;10.518;2023-06-24T05:08:14;17.60;99.90
3925;DHT22;1977;52.274;10.518;2023-06-24T05:10:42;17.60;99.90
3925;DHT22;1977;52.274;10.518;2023-06-24T05:13:09;17.70;99.90
3925;DHT22;1977;52.274;10.518;2023-06-24T05:15:36;17.80;99.90
3925;DHT22;1977;52.274;10.518;2023-06-24T05:18:03;17.90;99.90
3925;DHT22;1977;52.274;10.518;2023-06-24T05:20:29;17.90;99.90
3925;DHT22;1977;52.274;10.518;2023-06-24T05:22:56;17.90;99.90
3925;DHT22;1977;52.274;10.518;2023-06-24T05:25:23;18.10;99.90
3925;DHT22;1977;52.274;10.518;2023-06-24T05:27:51;18.10;99.90
3925;DHT22;1977;52.274;10.518;2023-06-24T05:30:18;18.20;99.90
3925;DHT22;1977;52.274;10.518;2023-06-24T05:32:45;18.20;99.90
3925;DHT22;1977;52.274;10.518;2023-06-24T05:35:11;18.30;99.90
3925;DHT22;1977;52.274;10.518;2023-06-24T05:37:38;18.40;99.90
3925;DHT22;1977;52.274;10.518;2023-06-24T05:40:06;18.50;99.90
3925;DHT22;1977;52.274;10.518;2023-06-24T05:42:33;18.60;99.90
3925;DHT22;1977;52.274;10.518;2023-06-24T05:45:01;18.60;99.90
3925;DHT22;1977;52.274;10.518;2023-06-24T05:47:28;18.80;99.90
3925;DHT22;1977;52.274;10.518;2023-06-24T05:49:55;18.80;99.90
3925;DHT22;1977;52.274;10.518;2023-06-24T05:52:22;18.90;99.90
3925;DHT22;1977;52.274;10.518;2023-06-24T05:54:48;19.20;99.90
3925;DHT22;1977;52.274;10.518;2023-06-24T05:57:17;19.10;99.90
3925;DHT22;1977;52.274;10.518;2023-06-24T05:59:44;19.10;99.90
3925;DHT22;1977;52.274;10.518;2023-06-24T06:02:12;19.20;99.90
3925;DHT22;1977;52.274;10.518;2023-06-24T06:04:39;19.40;99.90
3925;DHT22;1977;52.274;10.518;2023-06-24T06:07:06;19.40;99.90
3925;DHT22;1977;52.274;10.518;2023-06-24T06:09:32;19.50;99.90
3925;DHT22;1977;52.274;10.518;2023-06-24T06:12:02;19.60;99.90
3925;DHT22;1977;52.274;10.518;2023-06-24T06:14:31;19.70;99.90
3925;DHT22;1977;52.274;10.518;2023-06-24T06:16:58;19.80;99.90
3925;DHT22;1977;52.274;10.518;2023-06-24T06:19:26;19.90;99.90
3925;DHT22;1977;52.274;10.518;2023-06-24T06:21:53;20.00;99.90
3925;DHT22;1977;52.274;10.518;2023-06-24T06:24:19;20.10;99.90
3925;DHT22;1977;52.274;10.518;2023-06-24T06:26:46;20.20;99.90
3925;DHT22;1977;52.274;10.518;2023-06-24T06:29:13;20.30;99.90
3925;DHT22;1977;52.274;10.518;2023-06-24T06:31:40;20.40;99.90
3925;DHT22;1977;52.274;10.518;2023-06-24T06:34:07;20.90;99.90
3925;DHT22;1977;52.274;10.518;2023-06-24T06:36:35;20.70;99.90
3925;DHT22;1977;52.274;10.518;2023-06-24T06:39:02;21.10;99.90
3925;DHT22;1977;52.274;10.518;2023-06-24T06:41:29;21.00;99.90
3925;DHT22;1977;52.274;10.518;2023-06-24T06:43:55;21.10;99.90
3925;DHT22;1977;52.274;10.518;2023-06-24T06:46:22;21.50;99.90
3925;DHT22;1977;52.274;10.518;2023-06-24T06:48:49;21.40;99.90
3925;DHT22;1977;52.274;10.518;2023-06-24T06:51:16;21.30;99.90
3925;DHT22;1977;52.274;10.518;2023-06-24T06:53:45;21.40;99.90
3925;DHT22;1977;52.274;10.518;2023-06-24T06:56:17;21.50;99.90
3925;DHT22;1977;52.274;10.518;2023-06-24T06:58:44;21.60;99.90
3925;DHT22;1977;52.274;10.518;2023-06-24T07:01:10;21.70;99.90
3925;DHT22;1977;52.274;10.518;2023-06-24T07:03:37;21.90;99.90
3925;DHT22;1977;52.274;10.518;2023-06-24T07:06:04;22.10;99.90
3925;DHT22;1977;52.274;10.518;2023-06-24T07:08:31;22.30;99.90
3925;DHT22;1977;52.274;10.518;2023-06-24T07:10:59;22.30;99.90
3925;DHT22;1977;52.274;10.518;2023-06-24T07:13:26;22.40;99.90
3925;DHT22;1977;52.274;10.518;2023-06-24T07:15:53;22.60;99.90
3925;DHT22;1977;52.274;10.518;2023-06-24T07:18:19;22.60;99.90
3925;DHT22;1977;52.274;10.518;2023-06-24T07:20:46;22.80;99.90
3925;DHT22;1977;52.274;10.518;2023-06-24T07:23:13;23.00;99.90
3925;DHT22;1977;52.274;10.518;2023-06-24T07:25:40;23.10;99.90
3925;DHT22;1977;52.274;10.518;2023-06-24T07:28:08;23.30;99.90
3925;DHT22;1977;52.274;10.518;2023-06-24T07:30:35;23.30;99.90
3925;DHT22;1977;52.274;10.518;2023-06-24T07:33:02;23.40;99.90
3925;DHT22;1977;52.274;10.518;2023-06-24T07:35:31;23.60;99.90
3925;DHT22;1977;52.274;10.518;2023-06-24T07:38:00;23.60;99.90
3925;DHT22;1977;52.274;10.518;2023-06-24T07:40:27;24.00;99.90
3925;DHT22;1977;52.274;10.518;2023-06-24T07:42:54;23.80;99.90
3925;DHT22;1977;52.274;10.518;2023-06-24T07:45:22;23.80;99.90
3925;DHT22;1977;52.274;10.518;2023-06-24T07:47:50;24.20;99.90
3925;DHT22;1977;52.274;10.518;2023-06-24T07:50:17;24.00;99.90
3925;DHT22;1977;52.274;10.518;2023-06-24T07:52:44;24.30;99.90
3925;DHT22;1977;52.274;10.518;2023-06-24T07:55:11;24.30;99.90
3925;DHT22;1977;52.274;10.518;2023-06-24T07:57:38;24.60;99.90
3925;DHT22;1977;52.274;10.518;2023-06-24T08:00:07;24.90;99.90
3925;DHT22;1977;52.274;10.518;2023-06-24T08:02:38;25.30;99.90
3925;DHT22;1977;52.274;10.518;2023-06-24T08:05:05;25.70;99.90
3925;DHT22;1977;52.274;10.518;2023-06-24T08:07:32;26.10;99.90
3925;DHT22;1977;52.274;10.518;2023-06-24T08:09:58;26.40;99.90
3925;DHT22;1977;52.274;10.518;2023-06-24T08:12:25;27.00;99.90
3925;DHT22;1977;52.274;10.518;2023-06-24T08:14:52;27.60;99.90
3925;DHT22;1977;52.274;10.518;2023-06-24T08:17:19;27.60;99.90
3925;DHT22;1977;52.274;10.518;2023-06-24T08:19:47;27.70;99.90
3925;DHT22;1977;52.274;10.518;2023-06-24T08:22:15;27.80;99.90
3925;DHT22;1977;52.274;10.518;2023-06-24T08:24:41;28.00;99.90
3925;DHT22;1977;52.274;10.518;2023-06-24T08:30:13;29.10;99.60
3925;DHT22;1977;52.274;10.518;2023-06-24T08:32:41;29.40;98.10
3925;DHT22;1977;52.274;10.518;2023-06-24T08:38:30;30.70;99.90
3925;DHT22;1977;52.274;10.518;2023-06-24T08:40:57;31.50;92.20
3925;DHT22;1977;52.274;10.518;2023-06-24T08:43:24;32.00;89.50
3925;DHT22;1977;52.274;10.518;2023-06-24T08:48:19;32.80;85.50
3925;DHT22;1977;52.274;10.518;2023-06-24T08:50:50;33.00;81.50
3925;DHT22;1977;52.274;10.518;2023-06-24T08:53:18;33.00;84.20
3925;DHT22;1977;52.274;10.518;2023-06-24T08:55:49;33.00;82.90
3925;DHT22;1977;52.274;10.518;2023-06-24T08:58:19;32.80;78.00
3925;DHT22;1977;52.274;10.518;2023-06-24T09:00:46;31.60;79.40
3925;DHT22;1977;52.274;10.518;2023-06-24T09:03:13;30.80;83.00
3925;DHT22;1977;52.274;10.518;2023-06-24T09:05:39;30.00;83.50
3925;DHT22;1977;52.274;10.518;2023-06-24T09:08:06;29.20;88.20
3925;DHT22;1977;52.274;10.518;2023-06-24T09:10:34;28.60;89.10
3925;DHT22;1977;52.274;10.518;2023-06-24T09:13:02;28.10;89.80
3925;DHT22;1977;52.274;10.518;2023-06-24T09:15:30;27.60;90.70
3925;DHT22;1977;52.274;10.518;2023-06-24T09:17:57;27.10;91.80
3925;DHT22;1977;52.274;10.518;2023-06-24T09:20:26;26.90;93.20
3925;DHT22;1977;52.274;10.518;2023-06-24T09:22:57;26.60;93.80
3925;DHT22;1977;52.274;10.518;2023-06-24T09:25:24;26.40;94.90
3925;DHT22;1977;52.274;10.518;2023-06-24T09:27:51;26.30;94.10
3925;DHT22;1977;52.274;10.518;2023-06-24T09:30:21;26.10;94.40
3925;DHT22;1977;52.274;10.518;2023-06-24T09:32:48;26.10;94.60
3925;DHT22;1977;52.274;10.518;2023-06-24T09:35:18;26.00;95.90
3925;DHT22;1977;52.274;10.518;2023-06-24T09:37:49;25.90;95.70
3925;DHT22;1977;52.274;10.518;2023-06-24T09:40:16;25.80;94.70
3925;DHT22;1977;52.274;10.518;2023-06-24T09:42:49;25.80;96.50
3925;DHT22;1977;52.274;10.518;2023-06-24T09:45:24;25.70;95.30
3925;DHT22;1977;52.274;10.518;2023-06-24T09:47:51;25.70;94.20
3925;DHT22;1977;52.274;10.518;2023-06-24T09:50:18;25.70;96.90
3925;DHT22;1977;52.274;10.518;2023-06-24T09:52:45;25.70;97.50
3925;DHT22;1977;52.274;10.518;2023-06-24T09:55:13;25.70;95.40
3925;DHT22;1977;52.274;10.518;2023-06-24T09:57:42;25.70;97.00
3925;DHT22;1977;52.274;10.518;2023-06-24T10:00:12;25.70;96.40
3925;DHT22;1977;52.274;10.518;2023-06-24T10:02:42;25.70;95.50
3925;DHT22;1977;52.274;10.518;2023-06-24T10:05:09;25.60;96.70
3925;DHT22;1977;52.274;10.518;2023-06-24T10:07:36;25.60;95.90
3925;DHT22;1977;52.274;10.518;2023-06-24T10:10:05;25.60;96.40
3925;DHT22;1977;52.274;10.518;2023-06-24T10:12:34;25.60;96.30
3925;DHT22;1977;52.274;10.518;2023-06-24T10:15:01;25.50;96.00
3925;DHT22;1977;52.274;10.518;2023-06-24T10:17:29;25.50;96.90
3925;DHT22;1977;52.274;10.518;2023-06-24T10:19:57;25.70;98.00
3925;DHT22;1977;52.274;10.518;2023-06-24T10:22:24;25.60;97.80
3925;DHT22;1977;52.274;10.518;2023-06-24T10:24:54;25.70;98.70
3925;DHT22;1977;52.274;10.518;2023-06-24T10:27:22;25.70;98.70
3925;DHT22;1977;52.274;10.518;2023-06-24T10:29:50;25.70;97.60
3925;DHT22;1977;52.274;10.518;2023-06-24T10:32:19;25.70;98.30
3925;DHT22;1977;52.274;10.518;2023-06-24T10:34:47;25.60;98.20
3925;DHT22;1977;52.274;10.518;2023-06-24T10:37:19;25.60;98.10
3925;DHT22;1977;52.274;10.518;2023-06-24T10:39:48;25.60;98.40
3925;DHT22;1977;52.274;10.518;2023-06-24T10:42:36;25.60;99.00
3925;DHT22;1977;52.274;10.518;2023-06-24T10:45:14;25.60;98.70
3925;DHT22;1977;52.274;10.518;2023-06-24T10:47:42;25.60;98.20
3925;DHT22;1977;52.274;10.518;2023-06-24T10:50:10;26.00;98.40
3925;DHT22;1977;52.274;10.518;2023-06-24T10:52:39;25.70;99.30
3925;DHT22;1977;52.274;10.518;2023-06-24T10:55:08;25.70;98.70
3925;DHT22;1977;52.274;10.518;2023-06-24T10:57:35;25.70;99.20
3925;DHT22;1977;52.274;10.518;2023-06-24T11:00:03;25.60;98.70
3925;DHT22;1977;52.274;10.518;2023-06-24T11:02:30;25.60;98.90
3925;DHT22;1977;52.274;10.518;2023-06-24T11:04:58;25.70;98.70
3925;DHT22;1977;52.274;10.518;2023-06-24T11:07:26;25.60;99.10
3925;DHT22;1977;52.274;10.518;2023-06-24T11:09:56;25.60;98.90
3925;DHT22;1977;52.274;10.518;2023-06-24T11:12:24;25.60;98.90
3925;DHT22;1977;52.274;10.518;2023-06-24T11:14:55;25.60;98.40
3925;DHT22;1977;52.274;10.518;2023-06-24T11:17:21;25.50;98.70
3925;DHT22;1977;52.274;10.518;2023-06-24T11:19:48;25.70;99.50
3925;DHT22;1977;52.274;10.518;2023-06-24T11:22:15;25.60;98.70
3925;DHT22;1977;52.274;10.518;2023-06-24T11:24:42;25.50;98.90
3925;DHT22;1977;52.274;10.518;2023-06-24T11:27:10;25.40;99.40
3925;DHT22;1977;52.274;10.518;2023-06-24T11:29:37;25.40;98.90
3925;DHT22;1977;52.274;10.518;2023-06-24T11:32:07;25.50;99.00
3925;DHT22;1977;52.274;10.518;2023-06-24T11:34:35;25.50;99.30
3925;DHT22;1977;52.274;10.518;2023-06-24T11:37:09;25.60;99.50
3925;DHT22;1977;52.274;10.518;2023-06-24T11:39:36;25.60;99.90
3925;DHT22;1977;52.274;10.518;2023-06-24T11:42:06;25.60;99.80
3925;DHT22;1977;52.274;10.518;2023-06-24T11:44:34;25.60;99.90
3925;DHT22;1977;52.274;10.518;2023-06-24T11:47:05;25.70;99.90
3925;DHT22;1977;52.274;10.518;2023-06-24T11:49:38;25.70;99.90
3925;DHT22;1977;52.274;10.518;2023-06-24T11:52:13;25.70;99.70
3925;DHT22;1977;52.274;10.518;2023-06-24T11:54:41;25.70;99.80
3925;DHT22;1977;52.274;10.518;2023-06-24T11:57:08;25.70;98.70
3925;DHT22;1977;52.274;10.518;2023-06-24T11:59:36;25.60;99.90
3925;DHT22;1977;52.274;10.518;2023-06-24T12:02:03;25.70;99.90
3925;DHT22;1977;52.274;10.518;2023-06-24T12:04:31;25.70;99.90
3925;DHT22;1977;52.274;10.518;2023-06-24T12:06:58;25.70;99.90
3925;DHT22;1977;52.274;10.518;2023-06-24T12:09:25;25.70;99.90
3925;DHT22;1977;52.274;10.518;2023-06-24T12:11:52;25.90;99.90
3925;DHT22;1977;52.274;10.518;2023-06-24T12:14:19;25.80;99.90
3925;DHT22;1977;52.274;10.518;2023-06-24T12:16:47;25.70;99.90
3925;DHT22;1977;52.274;10.518;2023-06-24T12:19:14;25.80;99.90
3925;DHT22;1977;52.274;10.518;2023-06-24T12:21:41;25.80;99.90
3925;DHT22;1977;52.274;10.518;2023-06-24T12:24:07;25.80;99.90
3925;DHT22;1977;52.274;10.518;2023-06-24T12:26:34;25.80;99.90
3925;DHT22;1977;52.274;10.518;2023-06-24T12:29:02;25.80;99.90
3925;DHT22;1977;52.274;10.518;2023-06-24T12:31:28;25.80;99.90
3925;DHT22;1977;52.274;10.518;2023-06-24T12:33:57;25.80;99.90
3925;DHT22;1977;52.274;10.518;2023-06-24T12:36:23;25.80;99.90
3925;DHT22;1977;52.274;10.518;2023-06-24T12:38:50;25.90;99.90
3925;DHT22;1977;52.274;10.518;2023-06-24T12:41:17;26.00;99.90
3925;DHT22;1977;52.274;10.518;2023-06-24T12:43:43;25.90;99.90
3925;DHT22;1977;52.274;10.518;2023-06-24T12:46:10;26.00;99.90
3925;DHT22;1977;52.274;10.518;2023-06-24T12:48:37;26.00;99.90
3925;DHT22;1977;52.274;10.518;2023-06-24T12:51:05;25.90;99.90
3925;DHT22;1977;52.274;10.518;2023-06-24T12:53:32;26.00;99.90
3925;DHT22;1977;52.274;10.518;2023-06-24T12:55:58;26.00;99.90
3925;DHT22;1977;52.274;10.518;2023-06-24T12:58:25;26.00;99.80
3925;DHT22;1977;52.274;10.518;2023-06-24T13:00:52;26.00;99.40
3925;DHT22;1977;52.274;10.518;2023-06-24T13:03:19;25.90;99.90
3925;DHT22;1977;52.274;10.518;2023-06-24T13:05:46;25.90;99.90
3925;DHT22;1977;52.274;10.518;2023-06-24T13:08:14;25.90;99.90
3925;DHT22;1977;52.274;10.518;2023-06-24T13:10:41;25.90;99.90
3925;DHT22;1977;52.274;10.518;2023-06-24T13:13:08;25.90;99.90
3925;DHT22;1977;52.274;10.518;2023-06-24T13:15:37;25.90;99.90
3925;DHT22;1977;52.274;10.518;2023-06-24T13:18:04;25.90;99.90
3925;DHT22;1977;52.274;10.518;2023-06-24T13:20:45;25.90;99.90
3925;DHT22;1977;52.274;10.518;2023-06-24T13:23:18;25.80;99.90
3925;DHT22;1977;52.274;10.518;2023-06-24T13:25:45;25.90;99.90
3925;DHT22;1977;52.274;10.518;2023-06-24T13:28:12;25.80;99.90
3925;DHT22;1977;52.274;10.518;2023-06-24T13:30:39;26.00;99.90
3925;DHT22;1977;52.274;10.518;2023-06-24T13:33:06;25.80;99.90
3925;DHT22;1977;52.274;10.518;2023-06-24T13:35:33;25.80;99.20
3925;DHT22;1977;52.274;10.518;2023-06-24T13:38:00;25.80;99.90
3925;DHT22;1977;52.274;10.518;2023-06-24T13:40:28;25.80;98.80
3925;DHT22;1977;52.274;10.518;2023-06-24T13:42:56;25.80;98.10
3925;DHT22;1977;52.274;10.518;2023-06-24T13:45:23;26.00;99.40
3925;DHT22;1977;52.274;10.518;2023-06-24T13:47:52;26.00;99.70
3925;DHT22;1977;52.274;10.518;2023-06-24T13:50:30;26.00;99.60
3925;DHT22;1977;52.274;10.518;2023-06-24T13:53:02;26.10;99.90
3925;DHT22;1977;52.274;10.518;2023-06-24T13:55:30;26.00;99.00
3925;DHT22;1977;52.274;10.518;2023-06-24T13:57:57;26.10;99.90
3925;DHT22;1977;52.274;10.518;2023-06-24T14:00:24;26.20;99.70
3925;DHT22;1977;52.274;10.518;2023-06-24T14:02:51;26.20;98.20
3925;DHT22;1977;52.274;10.518;2023-06-24T14:05:20;26.20;98.80
3925;DHT22;1977;52.274;10.518;2023-06-24T14:07:49;26.20;98.40
3925;DHT22;1977;52.274;10.518;2023-06-24T14:10:16;26.20;98.90
3925;DHT22;1977;52.274;10.518;2023-06-24T14:12:44;26.30;98.50
3925;DHT22;1977;52.274;10.518;2023-06-24T14:15:22;26.40;98.30
3925;DHT22;1977;52.274;10.518;2023-06-24T14:17:51;26.40;98.50
3925;DHT22;1977;52.274;10.518;2023-06-24T14:20:20;26.30;98.10
3925;DHT22;1977;52.274;10.518;2023-06-24T14:22:47;26.30;98.10
3925;DHT22;1977;52.274;10.518;2023-06-24T14:25:13;26.20;96.40
3925;DHT22;1977;52.274;10.518;2023-06-24T14:27:40;26.20;97.80
3925;DHT22;1977;52.274;10.518;2023-06-24T14:30:09;26.20;98.20
3925;DHT22;1977;52.274;10.518;2023-06-24T14:32:38;26.30;97.70
3925;DHT22;1977;52.274;10.518;2023-06-24T14:35:06;26.20;97.80
3925;DHT22;1977;52.274;10.518;2023-06-24T14:37:33;26.20;97.90
3925;DHT22;1977;52.274;10.518;2023-06-24T14:40:00;26.30;97.80
3925;DHT22;1977;52.274;10.518;2023-06-24T14:42:29;26.30;97.90
3925;DHT22;1977;52.274;10.518;2023-06-24T14:44:57;26.40;97.70
3925;DHT22;1977;52.274;10.518;2023-06-24T14:47:25;26.30;97.90
3925;DHT22;1977;52.274;10.518;2023-06-24T14:49:52;26.30;97.90
3925;DHT22;1977;52.274;10.518;2023-06-24T14:52:19;26.20;96.70
3925;DHT22;1977;52.274;10.518;2023-06-24T14:54:46;26.10;97.70
3925;DHT22;1977;52.274;10.518;2023-06-24T14:57:13;26.10;96.30
3925;DHT22;1977;52.274;10.518;2023-06-24T14:59:41;26.10;96.70
3925;DHT22;1977;52.274;10.518;2023-06-24T15:02:08;25.90;96.30
3925;DHT22;1977;52.274;10.518;2023-06-24T15:04:36;26.00;97.60
3925;DHT22;1977;52.274;10.518;2023-06-24T15:07:04;26.10;96.20
3925;DHT22;1977;52.274;10.518;2023-06-24T15:09:31;26.20;96.90
3925;DHT22;1977;52.274;10.518;2023-06-24T15:11:58;26.20;97.10
3925;DHT22;1977;52.274;10.518;2023-06-24T15:14:24;26.30;97.20
3925;DHT22;1977;52.274;10.518;2023-06-24T15:16:51;26.30;97.40
3925;DHT22;1977;52.274;10.518;2023-06-24T15:19:19;26.40;97.20
3925;DHT22;1977;52.274;10.518;2023-06-24T15:21:47;26.40;97.10
3925;DHT22;1977;52.274;10.518;2023-06-24T15:24:14;26.40;96.40
3925;DHT22;1977;52.274;10.518;2023-06-24T15:26:41;26.40;96.30
3925;DHT22;1977;52.274;10.518;2023-06-24T15:29:07;26.50;96.70
3925;DHT22;1977;52.274;10.518;2023-06-24T15:31:34;26.50;97.30
3925;DHT22;1977;52.274;10.518;2023-06-24T15:34:01;26.40;97.60
3925;DHT22;1977;52.274;10.518;2023-06-24T15:36:28;26.40;96.90
3925;DHT22;1977;52.274;10.518;2023-06-24T15:38:56;26.50;97.00
3925;DHT22;1977;52.274;10.518;2023-06-24T15:41:23;26.50;97.20
3925;DHT22;1977;52.274;10.518;2023-06-24T15:43:50;26.50;97.10
3925;DHT22;1977;52.274;10.518;2023-06-24T15:46:17;26.60;97.00
3925;DHT22;1977;52.274;10.518;2023-06-24T15:48:43;26.40;96.50
3925;DHT22;1977;52.274;10.518;2023-06-24T15:51:10;26.50;96.70
3925;DHT22;1977;52.274;10.518;2023-06-24T15:53:37;26.40;95.40
3925;DHT22;1977;52.274;10.518;2023-06-24T15:56:05;26.40;96.10
3925;DHT22;1977;52.274;10.518;2023-06-24T15:58:32;26.30;95.80